sensor_id;sensor_type;location;lat;lon;timestamp;temperature;humidity
55331;DHT22;58851;42.984;20.336;2023-10-13T00:01:08;256.60;6502.40
55331;DHT22;58851;42.984;20.336;2023-10-13T00:03:37;256.50;6502.40
55331;DHT22;58851;42.984;20.336;2023-10-13T00:06:03;256.50;6502.40
55331;DHT22;58851;42.984;20.336;2023-10-13T00:08:29;256.50;6502.40
55331;DHT22;58851;42.984;20.336;2023-10-13T00:10:56;256.50;6502.40
55331;DHT22;58851;42.984;20.336;2023-10-13T00:13:28;256.40;6502.40
55331;DHT22;58851;42.984;20.336;2023-10-13T00:16:00;256.40;6502.40
55331;DHT22;58851;42.984;20.336;2023-10-13T00:18:30;256.30;6502.40
55331;DHT22;58851;42.984;20.336;2023-10-13T00:21:02;256.30;6502.40
55331;DHT22;58851;42.984;20.336;2023-10-13T00:23:38;256.20;6502.40
55331;DHT22;58851;42.984;20.336;2023-10-13T00:26:04;256.10;6502.40
55331;DHT22;58851;42.984;20.336;2023-10-13T00:28:34;256.20;6502.40
55331;DHT22;58851;42.984;20.336;2023-10-13T00:31:12;256.10;6502.40
55331;DHT22;58851;42.984;20.336;2023-10-13T00:33:40;256.10;6502.40
55331;DHT22;58851;42.984;20.336;2023-10-13T00:36:17;256.10;6502.40
55331;DHT22;58851;42.984;20.336;2023-10-13T00:38:45;256.00;6502.40
55331;DHT22;58851;42.984;20.336;2023-10-13T00:41:14;256.10;6502.40
55331;DHT22;58851;42.984;20.336;2023-10-13T00:43:47;256.10;6502.40
55331;DHT22;58851;42.984;20.336;2023-10-13T00:46:33;256.10;6502.40
55331;DHT22;58851;42.984;20.336;2023-10-13T00:49:01;256.00;6502.40
55331;DHT22;58851;42.984;20.336;2023-10-13T00:51:30;256.00;6502.40
55331;DHT22;58851;42.984;20.336;2023-10-13T00:54:23;231.30;6502.40
55331;DHT22;58851;42.984;20.336;2023-10-13T00:56:52;231.20;6502.40
55331;DHT22;58851;42.984;20.336;2023-10-13T00:59:29;231.20;6502.40
55331;DHT22;58851;42.984;20.336;2023-10-13T01:01:59;231.20;6502.40
55331;DHT22;58851;42.984;20.336;2023-10-13T01:04:45;231.10;6502.40
55331;DHT22;58851;42.984;20.336;2023-10-13T01:07:12;231.10;6502.40
55331;DHT22;58851;42.984;20.336;2023-10-13T01:09:42;231.10;6502.40
55331;DHT22;58851;42.984;20.336;2023-10-13T01:12:08;231.00;6502.40
55331;DHT22;58851;42.984;20.336;2023-10-13T01:14:34;231.10;6502.40
55331;DHT22;58851;42.984;20.336;2023-10-13T01:17:02;231.00;6502.40
55331;DHT22;58851;42.984;20.336;2023-10-13T01:19:29;231.00;6502.40
55331;DHT22;58851;42.984;20.336;2023-10-13T01:21:55;230.80;6502.40
55331;DHT22;58851;42.984;20.336;2023-10-13T01:24:32;230.80;6502.40
55331;DHT22;58851;42.984;20.336;2023-10-13T01:27:05;230.80;6502.40
55331;DHT22;58851;42.984;20.336;2023-10-13T01:29:46;230.90;6502.40
55331;DHT22;58851;42.984;20.336;2023-10-13T01:32:22;230.90;6502.40
55331;DHT22;58851;42.984;20.336;2023-10-13T01:34:49;230.80;6502.40
55331;DHT22;58851;42.984;20.336;2023-10-13T01:37:15;230.80;6502.40
55331;DHT22;58851;42.984;20.336;2023-10-13T01:39:42;230.80;6502.40
55331;DHT22;58851;42.984;20.336;2023-10-13T01:42:08;230.70;6502.40
55331;DHT22;58851;42.984;20.336;2023-10-13T01:44:34;230.70;6502.40
55331;DHT22;58851;42.984;20.336;2023-10-13T01:47:00;230.70;6502.40
55331;DHT22;58851;42.984;20.336;2023-10-13T01:49:33;230.70;6502.40
55331;DHT22;58851;42.984;20.336;2023-10-13T01:52:07;230.70;6502.40
55331;DHT22;58851;42.984;20.336;2023-10-13T01:54:38;230.60;6502.40
55331;DHT22;58851;42.984;20.336;2023-10-13T01:57:09;230.60;6502.40
55331;DHT22;58851;42.984;20.336;2023-10-13T01:59:44;230.60;6502.40
55331;DHT22;58851;42.984;20.336;2023-10-13T02:02:10;230.60;6502.40
55331;DHT22;58851;42.984;20.336;2023-10-13T02:04:42;230.60;6502.40
55331;DHT22;58851;42.984;20.336;2023-10-13T02:07:17;230.60;6502.40
55331;DHT22;58851;42.984;20.336;2023-10-13T02:09:43;230.50;6502.40
55331;DHT22;58851;42.984;20.336;2023-10-13T02:12:09;230.40;6502.40
55331;DHT22;58851;42.984;20.336;2023-10-13T02:14:36;230.40;6502.40
55331;DHT22;58851;42.984;20.336;2023-10-13T02:17:05;230.40;6502.40
55331;DHT22;58851;42.984;20.336;2023-10-13T02:19:42;230.40;6502.40
55331;DHT22;58851;42.984;20.336;2023-10-13T02:22:14;230.40;6502.40
55331;DHT22;58851;42.984;20.336;2023-10-13T02:24:57;230.40;6502.40
55331;DHT22;58851;42.984;20.336;2023-10-13T02:27:27;230.40;6502.40
55331;DHT22;58851;42.984;20.336;2023-10-13T02:29:54;205.70;6502.40
55331;DHT22;58851;42.984;20.336;2023-10-13T02:32:25;205.70;6502.40
55331;DHT22;58851;42.984;20.336;2023-10-13T02:34:52;205.70;6502.40
55331;DHT22;58851;42.984;20.336;2023-10-13T02:37:18;205.70;6502.40
55331;DHT22;58851;42.984;20.336;2023-10-13T02:39:45;205.60;6502.40
55331;DHT22;58851;42.984;20.336;2023-10-13T02:42:11;205.60;6502.40
55331;DHT22;58851;42.984;20.336;2023-10-13T02:44:52;205.60;6502.40
55331;DHT22;58851;42.984;20.336;2023-10-13T02:47:23;205.60;6502.40
55331;DHT22;58851;42.984;20.336;2023-10-13T02:49:50;205.60;6502.40
55331;DHT22;58851;42.984;20.336;2023-10-13T02:52:16;205.60;6502.40
55331;DHT22;58851;42.984;20.336;2023-10-13T02:54:42;205.60;6502.40
55331;DHT22;58851;42.984;20.336;2023-10-13T02:57:13;205.50;6502.40
55331;DHT22;58851;42.984;20.336;2023-10-13T02:59:41;205.50;6502.40
55331;DHT22;58851;42.984;20.336;2023-10-13T03:02:16;205.50;6502.40
55331;DHT22;58851;42.984;20.336;2023-10-13T03:04:52;205.50;6502.40
55331;DHT22;58851;42.984;20.336;2023-10-13T03:07:28;205.40;6502.40
55331;DHT22;58851;42.984;20.336;2023-10-13T03:09:55;205.40;6502.40
55331;DHT22;58851;42.984;20.336;2023-10-13T03:12:23;205.40;6502.40
55331;DHT22;58851;42.984;20.336;2023-10-13T03:14:58;205.40;6502.40
55331;DHT22;58851;42.984;20.336;2023-10-13T03:17:43;205.40;6502.40
55331;DHT22;58851;42.984;20.336;2023-10-13T03:20:13;205.40;6502.40
55331;DHT22;58851;42.984;20.336;2023-10-13T03:22:40;205.40;6502.40
55331;DHT22;58851;42.984;20.336;2023-10-13T03:25:06;205.40;6502.40
55331;DHT22;58851;42.984;20.336;2023-10-13T03:27:35;205.30;6502.40
55331;DHT22;58851;42.984;20.336;2023-10-13T03:30:19;205.30;6502.40
55331;DHT22;58851;42.984;20.336;2023-10-13T03:32:46;205.30;6502.40
55331;DHT22;58851;42.984;20.336;2023-10-13T03:35:15;205.30;6502.40
55331;DHT22;58851;42.984;20.336;2023-10-13T03:37:51;205.20;6502.40
55331;DHT22;58851;42.984;20.336;2023-10-13T03:40:16;205.30;6502.40
55331;DHT22;58851;42.984;20.336;2023-10-13T03:42:49;205.20;6502.40
55331;DHT22;58851;42.984;20.336;2023-10-13T03:45:37;205.20;6502.40
55331;DHT22;58851;42.984;20.336;2023-10-13T03:48:12;205.20;6502.40
55331;DHT22;58851;42.984;20.336;2023-10-13T03:50:50;205.20;6502.40
55331;DHT22;58851;42.984;20.336;2023-10-13T03:53:36;205.10;6502.40
55331;DHT22;58851;42.984;20.336;2023-10-13T03:56:18;205.20;6502.40
55331;DHT22;58851;42.984;20.336;2023-10-13T03:58:52;205.20;6502.40
55331;DHT22;58851;42.984;20.336;2023-10-13T04:01:20;205.20;6502.40
55331;DHT22;58851;42.984;20.336;2023-10-13T04:04:00;205.20;6502.40
55331;DHT22;58851;42.984;20.336;2023-10-13T04:06:32;205.20;6502.40
55331;DHT22;58851;42.984;20.336;2023-10-13T04:09:23;205.10;6502.40
55331;DHT22;58851;42.984;20.336;2023-10-13T04:11:58;205.10;6502.40
55331;DHT22;58851;42.984;20.336;2023-10-13T04:14:30;205.10;6502.40
55331;DHT22;58851;42.984;20.336;2023-10-13T04:17:15;205.10;6502.40
55331;DHT22;58851;42.984;20.336;2023-10-13T04:19:41;205.10;6502.40
55331;DHT22;58851;42.984;20.336;2023-10-13T04:22:26;205.20;6502.40
55331;DHT22;58851;42.984;20.336;2023-10-13T04:25:25;205.20;6502.40
55331;DHT22;58851;42.984;20.336;2023-10-13T04:28:01;205.10;6502.40
55331;DHT22;58851;42.984;20.336;2023-10-13T04:33:18;205.00;6502.40
55331;DHT22;58851;42.984;20.336;2023-10-13T04:36:07;204.90;6502.40
55331;DHT22;58851;42.984;20.336;2023-10-13T04:38:47;205.00;6502.40
55331;DHT22;58851;42.984;20.336;2023-10-13T04:41:39;205.00;6502.40
55331;DHT22;58851;42.984;20.336;2023-10-13T04:44:18;205.00;6502.40
55331;DHT22;58851;42.984;20.336;2023-10-13T04:47:02;205.00;6502.40
55331;DHT22;58851;42.984;20.336;2023-10-13T04:49:58;205.00;6502.40
55331;DHT22;58851;42.984;20.336;2023-10-13T04:52:48;205.00;6502.40
55331;DHT22;58851;42.984;20.336;2023-10-13T04:55:28;205.10;6502.40
55331;DHT22;58851;42.984;20.336;2023-10-13T04:58:25;205.20;6502.40
55331;DHT22;58851;42.984;20.336;2023-10-13T05:01:04;205.20;6502.40
55331;DHT22;58851;42.984;20.336;2023-10-13T05:03:48;205.30;6502.40
55331;DHT22;58851;42.984;20.336;2023-10-13T05:06:20;205.30;6502.40
55331;DHT22;58851;42.984;20.336;2023-10-13T05:09:04;205.30;6502.40
55331;DHT22;58851;42.984;20.336;2023-10-13T05:11:48;205.40;6502.40
55331;DHT22;58851;42.984;20.336;2023-10-13T05:14:32;205.40;6502.40
55331;DHT22;58851;42.984;20.336;2023-10-13T05:17:17;205.50;6502.40
55331;DHT22;58851;42.984;20.336;2023-10-13T05:20:02;205.50;6502.40
55331;DHT22;58851;42.984;20.336;2023-10-13T05:22:47;205.50;6502.40
55331;DHT22;58851;42.984;20.336;2023-10-13T05:25:35;205.60;6502.40
55331;DHT22;58851;42.984;20.336;2023-10-13T05:28:19;205.60;6502.40
55331;DHT22;58851;42.984;20.336;2023-10-13T05:31:04;205.60;6502.40
55331;DHT22;58851;42.984;20.336;2023-10-13T05:33:48;205.70;6502.40
55331;DHT22;58851;42.984;20.336;2023-10-13T05:36:33;205.70;6502.40
55331;DHT22;58851;42.984;20.336;2023-10-13T05:39:17;230.40;6502.40
55331;DHT22;58851;42.984;20.336;2023-10-13T05:42:01;230.50;6502.40
55331;DHT22;58851;42.984;20.336;2023-10-13T05:44:45;230.50;6502.40
55331;DHT22;58851;42.984;20.336;2023-10-13T05:47:29;230.60;6502.40
55331;DHT22;58851;42.984;20.336;2023-10-13T05:50:05;230.70;6502.40
55331;DHT22;58851;42.984;20.336;2023-10-13T05:52:39;230.70;6502.40
55331;DHT22;58851;42.984;20.336;2023-10-13T05:55:30;230.80;6502.40
55331;DHT22;58851;42.984;20.336;2023-10-13T05:58:15;230.80;6502.40
55331;DHT22;58851;42.984;20.336;2023-10-13T06:00:59;230.90;6502.40
55331;DHT22;58851;42.984;20.336;2023-10-13T06:03:44;231.00;6502.40
55331;DHT22;58851;42.984;20.336;2023-10-13T06:06:29;231.10;6502.40
55331;DHT22;58851;42.984;20.336;2023-10-13T06:09:13;231.20;6502.40
55331;DHT22;58851;42.984;20.336;2023-10-13T06:11:57;231.20;6502.40
55331;DHT22;58851;42.984;20.336;2023-10-13T06:14:45;231.20;6502.40
55331;DHT22;58851;42.984;20.336;2023-10-13T06:17:30;256.00;6502.40
55331;DHT22;58851;42.984;20.336;2023-10-13T06:20:14;256.10;6502.40
55331;DHT22;58851;42.984;20.336;2023-10-13T06:22:58;256.20;6502.40
55331;DHT22;58851;42.984;20.336;2023-10-13T06:25:42;256.30;6502.40
55331;DHT22;58851;42.984;20.336;2023-10-13T06:28:26;256.20;6502.40
55331;DHT22;58851;42.984;20.336;2023-10-13T06:31:08;256.50;6502.40
55331;DHT22;58851;42.984;20.336;2023-10-13T06:33:40;256.70;6502.40
55331;DHT22;58851;42.984;20.336;2023-10-13T06:36:12;256.60;6502.40
55331;DHT22;58851;42.984;20.336;2023-10-13T06:38:38;256.60;6502.40
55331;DHT22;58851;42.984;20.336;2023-10-13T06:41:08;256.60;6502.40
55331;DHT22;58851;42.984;20.336;2023-10-13T06:43:35;256.60;6502.40
55331;DHT22;58851;42.984;20.336;2023-10-13T06:46:12;256.70;6502.40
55331;DHT22;58851;42.984;20.336;2023-10-13T06:48:41;256.70;6502.40
55331;DHT22;58851;42.984;20.336;2023-10-13T06:51:07;256.90;6502.40
55331;DHT22;58851;42.984;20.336;2023-10-13T06:53:49;256.70;6502.40
55331;DHT22;58851;42.984;20.336;2023-10-13T06:56:15;256.90;6502.40
55331;DHT22;58851;42.984;20.336;2023-10-13T06:58:53;281.60;6528.00
55331;DHT22;58851;42.984;20.336;2023-10-13T07:01:26;281.80;6528.00
55331;DHT22;58851;42.984;20.336;2023-10-13T07:03:52;281.90;6528.00
55331;DHT22;58851;42.984;20.336;2023-10-13T07:06:27;282.20;6528.00
55331;DHT22;58851;42.984;20.336;2023-10-13T07:08:53;282.30;6528.00
55331;DHT22;58851;42.984;20.336;2023-10-13T07:11:25;282.30;6528.00
55331;DHT22;58851;42.984;20.336;2023-10-13T07:14:04;282.40;6528.00
55331;DHT22;58851;42.984;20.336;2023-10-13T07:17:00;282.40;6528.00
55331;DHT22;58851;42.984;20.336;2023-10-13T07:19:27;282.30;6528.00
55331;DHT22;58851;42.984;20.336;2023-10-13T07:21:56;282.50;6528.00
55331;DHT22;58851;42.984;20.336;2023-10-13T07:24:28;307.30;128.00
55331;DHT22;58851;42.984;20.336;2023-10-13T07:26:58;307.20;128.00
55331;DHT22;58851;42.984;20.336;2023-10-13T07:29:29;307.40;128.00
55331;DHT22;58851;42.984;20.336;2023-10-13T07:31:55;307.50;128.00
55331;DHT22;58851;42.984;20.336;2023-10-13T07:34:21;307.50;128.00
55331;DHT22;58851;42.984;20.336;2023-10-13T07:36:57;307.70;128.00
55331;DHT22;58851;42.984;20.336;2023-10-13T07:39:27;307.80;128.00
55331;DHT22;58851;42.984;20.336;2023-10-13T07:41:54;308.10;128.00
55331;DHT22;58851;42.984;20.336;2023-10-13T07:44:22;332.80;128.00
55331;DHT22;58851;42.984;20.336;2023-10-13T07:46:52;333.00;128.00
55331;DHT22;58851;42.984;20.336;2023-10-13T07:49:37;333.10;128.00
55331;DHT22;58851;42.984;20.336;2023-10-13T07:52:11;333.20;128.00
55331;DHT22;58851;42.984;20.336;2023-10-13T07:54:48;333.30;128.00
55331;DHT22;58851;42.984;20.336;2023-10-13T07:57:46;333.40;128.00
55331;DHT22;58851;42.984;20.336;2023-10-13T08:00:23;333.40;128.00
55331;DHT22;58851;42.984;20.336;2023-10-13T08:03:13;333.60;128.00
55331;DHT22;58851;42.984;20.336;2023-10-13T08:05:54;358.40;128.00
55331;DHT22;58851;42.984;20.336;2023-10-13T08:08:45;358.60;128.00
55331;DHT22;58851;42.984;20.336;2023-10-13T08:11:16;358.80;128.00
55331;DHT22;58851;42.984;20.336;2023-10-13T08:13:57;359.10;128.00
55331;DHT22;58851;42.984;20.336;2023-10-13T08:16:42;359.30;128.00
55331;DHT22;58851;42.984;20.336;2023-10-13T08:19:12;384.10;128.00
55331;DHT22;58851;42.984;20.336;2023-10-13T08:21:42;384.40;128.00
55331;DHT22;58851;42.984;20.336;2023-10-13T08:24:18;384.50;128.00
55331;DHT22;58851;42.984;20.336;2023-10-13T08:26:53;384.60;128.00
55331;DHT22;58851;42.984;20.336;2023-10-13T08:29:37;384.80;128.00
55331;DHT22;58851;42.984;20.336;2023-10-13T08:32:14;409.60;128.00
55331;DHT22;58851;42.984;20.336;2023-10-13T08:34:49;384.90;128.00
55331;DHT22;58851;42.984;20.336;2023-10-13T08:37:21;409.60;128.00
55331;DHT22;58851;42.984;20.336;2023-10-13T08:39:48;409.70;128.00
55331;DHT22;58851;42.984;20.336;2023-10-13T08:45:08;410.00;128.00
55331;DHT22;58851;42.984;20.336;2023-10-13T08:47:59;410.20;128.00
55331;DHT22;58851;42.984;20.336;2023-10-13T08:50:35;410.50;128.00
55331;DHT22;58851;42.984;20.336;2023-10-13T08:53:20;435.30;128.00
55331;DHT22;58851;42.984;20.336;2023-10-13T08:56:07;435.50;128.00
55331;DHT22;58851;42.984;20.336;2023-10-13T08:58:47;435.70;128.00
55331;DHT22;58851;42.984;20.336;2023-10-13T09:01:30;435.80;128.00
55331;DHT22;58851;42.984;20.336;2023-10-13T09:04:00;435.80;128.00
55331;DHT22;58851;42.984;20.336;2023-10-13T09:06:45;435.80;128.00
55331;DHT22;58851;42.984;20.336;2023-10-13T09:09:48;435.90;128.00
55331;DHT22;58851;42.984;20.336;2023-10-13T09:12:20;436.00;128.00
55331;DHT22;58851;42.984;20.336;2023-10-13T09:15:01;460.80;128.00
55331;DHT22;58851;42.984;20.336;2023-10-13T09:17:31;461.00;128.00
55331;DHT22;58851;42.984;20.336;2023-10-13T09:20:05;461.10;128.00
55331;DHT22;58851;42.984;20.336;2023-10-13T09:22:54;461.30;128.00
55331;DHT22;58851;42.984;20.336;2023-10-13T09:25:40;461.50;128.00
55331;DHT22;58851;42.984;20.336;2023-10-13T09:28:29;461.70;128.00
55331;DHT22;58851;42.984;20.336;2023-10-13T09:30:56;486.40;128.00
55331;DHT22;58851;42.984;20.336;2023-10-13T09:33:31;486.60;128.00
55331;DHT22;58851;42.984;20.336;2023-10-13T09:36:11;486.70;128.00
55331;DHT22;58851;42.984;20.336;2023-10-13T09:38:38;486.70;128.00
55331;DHT22;58851;42.984;20.336;2023-10-13T09:41:12;486.80;128.00
55331;DHT22;58851;42.984;20.336;2023-10-13T09:43:53;486.90;128.00
55331;DHT22;58851;42.984;20.336;2023-10-13T09:46:26;487.10;128.00
55331;DHT22;58851;42.984;20.336;2023-10-13T09:48:58;487.30;128.00
55331;DHT22;58851;42.984;20.336;2023-10-13T09:51:33;487.30;256.00
55331;DHT22;58851;42.984;20.336;2023-10-13T09:54:20;512.10;281.60
55331;DHT22;58851;42.984;20.336;2023-10-13T09:56:59;512.20;153.60
55331;DHT22;58851;42.984;20.336;2023-10-13T09:59:36;512.30;281.60
55331;DHT22;58851;42.984;20.336;2023-10-13T10:02:08;512.50;153.60
55331;DHT22;58851;42.984;20.336;2023-10-13T10:04:38;512.60;179.20
55331;DHT22;58851;42.984;20.336;2023-10-13T10:07:27;512.60;358.40
55331;DHT22;58851;42.984;20.336;2023-10-13T10:09:58;512.70;128.00
55331;DHT22;58851;42.984;20.336;2023-10-13T10:17:55;537.90;128.00
55331;DHT22;58851;42.984;20.336;2023-10-13T10:20:32;538.00;128.00
55331;DHT22;58851;42.984;20.336;2023-10-13T10:23:08;538.10;128.00
55331;DHT22;58851;42.984;20.336;2023-10-13T10:25:48;538.40;128.00
55331;DHT22;58851;42.984;20.336;2023-10-13T10:28:17;563.20;128.00
55331;DHT22;58851;42.984;20.336;2023-10-13T10:30:44;563.40;128.00
55331;DHT22;58851;42.984;20.336;2023-10-13T10:33:11;563.40;128.00
55331;DHT22;58851;42.984;20.336;2023-10-13T10:35:39;563.70;128.00
55331;DHT22;58851;42.984;20.336;2023-10-13T10:38:18;563.90;128.00
55331;DHT22;58851;42.984;20.336;2023-10-13T10:41:02;564.00;128.00
55331;DHT22;58851;42.984;20.336;2023-10-13T10:48:39;589.00;128.00
55331;DHT22;58851;42.984;20.336;2023-10-13T10:51:10;589.10;128.00
55331;DHT22;58851;42.984;20.336;2023-10-13T10:53:52;589.10;128.00
55331;DHT22;58851;42.984;20.336;2023-10-13T10:56:22;589.20;128.00
55331;DHT22;58851;42.984;20.336;2023-10-13T10:58:54;589.30;742.40
55331;DHT22;58851;42.984;20.336;2023-10-13T11:01:24;589.40;128.00
55331;DHT22;58851;42.984;20.336;2023-10-13T11:04:05;589.40;128.00
55331;DHT22;58851;42.984;20.336;2023-10-13T11:06:49;589.40;128.00
55331;DHT22;58851;42.984;20.336;2023-10-13T11:09:30;589.60;128.00
55331;DHT22;58851;42.984;20.336;2023-10-13T11:12:07;614.40;128.00
55331;DHT22;58851;42.984;20.336;2023-10-13T11:14:59;614.40;128.00
55331;DHT22;58851;42.984;20.336;2023-10-13T11:17:25;614.40;128.00
55331;DHT22;58851;42.984;20.336;2023-10-13T11:20:13;614.50;128.00
55331;DHT22;58851;42.984;20.336;2023-10-13T11:22:47;614.40;128.00
55331;DHT22;58851;42.984;20.336;2023-10-13T11:25:24;614.60;128.00
55331;DHT22;58851;42.984;20.336;2023-10-13T11:27:58;614.80;128.00
55331;DHT22;58851;42.984;20.336;2023-10-13T11:30:34;615.00;128.00
55331;DHT22;58851;42.984;20.336;2023-10-13T11:33:05;615.10;128.00
55331;DHT22;58851;42.984;20.336;2023-10-13T11:35:32;640.00;128.00
55331;DHT22;58851;42.984;20.336;2023-10-13T11:38:17;640.10;128.00
55331;DHT22;58851;42.984;20.336;2023-10-13T11:41:04;640.30;128.00
55331;DHT22;58851;42.984;20.336;2023-10-13T11:43:38;640.40;128.00
55331;DHT22;58851;42.984;20.336;2023-10-13T11:46:11;640.50;128.00
55331;DHT22;58851;42.984;20.336;2023-10-13T11:48:37;640.70;128.00
55331;DHT22;58851;42.984;20.336;2023-10-13T11:51:07;640.90;128.00
55331;DHT22;58851;42.984;20.336;2023-10-13T11:53:37;640.90;128.00
55331;DHT22;58851;42.984;20.336;2023-10-13T11:56:04;665.60;153.60
55331;DHT22;58851;42.984;20.336;2023-10-13T11:58:37;640.90;128.00
55331;DHT22;58851;42.984;20.336;2023-10-13T12:01:05;665.60;153.60
55331;DHT22;58851;42.984;20.336;2023-10-13T12:03:34;665.70;153.60
55331;DHT22;58851;42.984;20.336;2023-10-13T12:06:18;665.80;153.60
55331;DHT22;58851;42.984;20.336;2023-10-13T12:08:48;666.00;153.60
55331;DHT22;58851;42.984;20.336;2023-10-13T12:11:18;666.20;153.60
55331;DHT22;58851;42.984;20.336;2023-10-13T12:13:56;666.30;153.60
55331;DHT22;58851;42.984;20.336;2023-10-13T12:16:23;691.20;153.60
55331;DHT22;58851;42.984;20.336;2023-10-13T12:19:01;691.40;153.60
55331;DHT22;58851;42.984;20.336;2023-10-13T12:21:27;691.50;153.60
55331;DHT22;58851;42.984;20.336;2023-10-13T12:23:54;691.60;153.60
55331;DHT22;58851;42.984;20.336;2023-10-13T12:26:21;691.80;153.60
55331;DHT22;58851;42.984;20.336;2023-10-13T12:29:00;691.90;153.60
55331;DHT22;58851;42.984;20.336;2023-10-13T12:31:33;691.80;153.60
55331;DHT22;58851;42.984;20.336;2023-10-13T12:34:04;691.70;153.60
55331;DHT22;58851;42.984;20.336;2023-10-13T12:36:40;691.50;153.60
55331;DHT22;58851;42.984;20.336;2023-10-13T12:39:19;691.50;153.60
55331;DHT22;58851;42.984;20.336;2023-10-13T12:42:03;691.50;153.60
55331;DHT22;58851;42.984;20.336;2023-10-13T12:44:47;691.70;153.60
55331;DHT22;58851;42.984;20.336;2023-10-13T12:47:31;691.80;153.60
55331;DHT22;58851;42.984;20.336;2023-10-13T12:50:29;691.90;153.60
55331;DHT22;58851;42.984;20.336;2023-10-13T12:53:09;716.80;179.20
55331;DHT22;58851;42.984;20.336;2023-10-13T12:55:42;692.10;153.60
55331;DHT22;58851;42.984;20.336;2023-10-13T12:58:08;716.80;179.20
55331;DHT22;58851;42.984;20.336;2023-10-13T13:00:33;716.90;179.20
55331;DHT22;58851;42.984;20.336;2023-10-13T13:02:59;717.00;179.20
55331;DHT22;58851;42.984;20.336;2023-10-13T13:05:25;717.30;179.20
55331;DHT22;58851;42.984;20.336;2023-10-13T13:07:54;717.40;179.20
55331;DHT22;58851;42.984;20.336;2023-10-13T13:10:20;717.70;179.20
55331;DHT22;58851;42.984;20.336;2023-10-13T13:13:01;742.70;204.80
55331;DHT22;58851;42.984;20.336;2023-10-13T13:15:27;743.10;204.80
55331;DHT22;58851;42.984;20.336;2023-10-13T13:17:52;743.30;204.80
55331;DHT22;58851;42.984;20.336;2023-10-13T13:20:18;768.30;204.80
55331;DHT22;58851;42.984;20.336;2023-10-13T13:22:55;768.40;204.80
55331;DHT22;58851;42.984;20.336;2023-10-13T13:25:21;768.30;716.80
55331;DHT22;58851;42.984;20.336;2023-10-13T13:27:58;768.60;358.40
55331;DHT22;58851;42.984;20.336;2023-10-13T13:30:30;768.70;332.80
55331;DHT22;58851;42.984;20.336;2023-10-13T13:32:59;768.70;204.80
55331;DHT22;58851;42.984;20.336;2023-10-13T13:35:30;793.70;230.40
55331;DHT22;58851;42.984;20.336;2023-10-13T13:38:01;768.90;204.80
55331;DHT22;58851;42.984;20.336;2023-10-13T13:40:37;793.70;230.40
55331;DHT22;58851;42.984;20.336;2023-10-13T13:43:03;793.70;230.40
55331;DHT22;58851;42.984;20.336;2023-10-13T13:45:29;794.00;230.40
55331;DHT22;58851;42.984;20.336;2023-10-13T13:47:55;794.10;230.40
55331;DHT22;58851;42.984;20.336;2023-10-13T13:50:25;794.30;230.40
55331;DHT22;58851;42.984;20.336;2023-10-13T13:52:56;794.40;230.40
55331;DHT22;58851;42.984;20.336;2023-10-13T13:55:23;819.20;230.40
55331;DHT22;58851;42.984;20.336;2023-10-13T13:57:50;819.40;230.40
55331;DHT22;58851;42.984;20.336;2023-10-13T14:00:19;819.70;230.40
55331;DHT22;58851;42.984;20.336;2023-10-13T14:03:07;819.90;230.40
55331;DHT22;58851;42.984;20.336;2023-10-13T14:06:00;819.90;230.40
55331;DHT22;58851;42.984;20.336;2023-10-13T14:08:27;819.90;230.40
55331;DHT22;58851;42.984;20.336;2023-10-13T14:10:56;820.10;230.40
55331;DHT22;58851;42.984;20.336;2023-10-13T14:13:48;820.00;230.40
55331;DHT22;58851;42.984;20.336;2023-10-13T14:16:23;820.10;230.40
55331;DHT22;58851;42.984;20.336;2023-10-13T14:18:50;820.00;230.40
55331;DHT22;58851;42.984;20.336;2023-10-13T14:21:17;820.00;230.40
55331;DHT22;58851;42.984;20.336;2023-10-13T14:23:48;819.90;230.40
55331;DHT22;58851;42.984;20.336;2023-10-13T14:26:16;819.70;230.40
55331;DHT22;58851;42.984;20.336;2023-10-13T14:28:47;819.40;230.40
55331;DHT22;58851;42.984;20.336;2023-10-13T14:31:20;794.30;230.40
55331;DHT22;58851;42.984;20.336;2023-10-13T14:33:47;793.70;230.40
55331;DHT22;58851;42.984;20.336;2023-10-13T14:36:13;768.60;204.80
55331;DHT22;58851;42.984;20.336;2023-10-13T14:38:42;768.20;204.80
55331;DHT22;58851;42.984;20.336;2023-10-13T14:41:10;743.30;204.80
55331;DHT22;58851;42.984;20.336;2023-10-13T14:43:35;742.90;204.80
55331;DHT22;58851;42.984;20.336;2023-10-13T14:46:01;742.50;204.80
55331;DHT22;58851;42.984;20.336;2023-10-13T14:48:27;717.70;179.20
55331;DHT22;58851;42.984;20.336;2023-10-13T14:50:53;717.40;179.20
55331;DHT22;58851;42.984;20.336;2023-10-13T14:53:18;717.00;179.20
55331;DHT22;58851;42.984;20.336;2023-10-13T14:55:47;692.10;409.60
55331;DHT22;58851;42.984;20.336;2023-10-13T14:58:13;691.80;332.80
55331;DHT22;58851;42.984;20.336;2023-10-13T15:00:42;691.60;409.60
55331;DHT22;58851;42.984;20.336;2023-10-13T15:03:11;691.40;281.60
55331;DHT22;58851;42.984;20.336;2023-10-13T15:05:40;691.20;486.40
55331;DHT22;58851;42.984;20.336;2023-10-13T15:08:11;666.30;153.60
55331;DHT22;58851;42.984;20.336;2023-10-13T15:10:38;666.20;153.60
55331;DHT22;58851;42.984;20.336;2023-10-13T15:13:04;666.00;153.60
55331;DHT22;58851;42.984;20.336;2023-10-13T15:15:31;665.80;153.60
55331;DHT22;58851;42.984;20.336;2023-10-13T15:17:58;665.60;742.40
55331;DHT22;58851;42.984;20.336;2023-10-13T15:20:24;640.70;128.00
55331;DHT22;58851;42.984;20.336;2023-10-13T15:22:50;640.50;128.00
55331;DHT22;58851;42.984;20.336;2023-10-13T15:25:19;640.30;128.00
55331;DHT22;58851;42.984;20.336;2023-10-13T15:28:04;640.00;128.00
55331;DHT22;58851;42.984;20.336;2023-10-13T15:30:33;615.30;128.00
55331;DHT22;58851;42.984;20.336;2023-10-13T15:33:22;615.10;128.00
55331;DHT22;58851;42.984;20.336;2023-10-13T15:35:49;614.90;128.00
55331;DHT22;58851;42.984;20.336;2023-10-13T15:38:14;614.70;128.00
55331;DHT22;58851;42.984;20.336;2023-10-13T15:40:45;614.60;128.00
55331;DHT22;58851;42.984;20.336;2023-10-13T15:43:11;589.60;128.00